Time;durP1;ratioP1;P1;durP2;ratioP2;P2;SDS_P1;SDS_P2;PMS_P1;PMS_P2;Temp;Humidity;BMP_temperature;BMP_pressure;BME280_temperature;BME280_humidity;BME280_pressure;Samples;Min_cycle;Max_cycle;Signal;HPM_P1;HPM_P2
2021/05/13 00:00:46;;;;;;;19.17;15.20;;;;;;;7.74;97.11;95597.44;5062915;28;20314;-77
2021/05/13 00:03:12;;;;;;;20.67;16.20;;;;;;;7.70;96.82;95602.16;5067072;28;20040;-78
2021/05/13 00:05:38;;;;;;;21.00;13.63;;;;;;;7.62;96.85;95598.69;5064689;28;20030;-78
2021/05/13 00:08:05;;;;;;;14.20;11.40;;;;;;;7.54;97.06;95600.31;5068146;28;20570;-77
2021/05/13 00:10:31;;;;;;;15.40;10.60;;;;;;;7.52;96.76;95609.28;5059128;28;20065;-77
2021/05/13 00:13:01;;;;;;;13.63;10.73;;;;;;;7.53;97.21;95610.91;5043008;28;20122;-78
2021/05/13 00:15:41;;;;;;;14.90;11.20;;;;;;;7.43;96.42;95604.97;5055579;28;20032;-77
2021/05/13 00:18:08;;;;;;;15.50;11.20;;;;;;;7.27;97.13;95609.13;5061200;28;20059;-78
2021/05/13 00:20:37;;;;;;;14.57;10.83;;;;;;;7.14;97.58;95606.09;5068995;28;20892;-78
2021/05/13 00:23:03;;;;;;;14.73;11.43;;;;;;;7.10;97.54;95610.00;5043898;28;20067;-78
2021/05/13 00:25:29;;;;;;;15.13;12.20;;;;;;;7.12;97.71;95613.28;5067244;28;20100;-77
2021/05/13 00:27:55;;;;;;;14.53;11.60;;;;;;;7.05;97.88;95617.50;5066452;28;20588;-77
2021/05/13 00:30:21;;;;;;;15.57;12.03;;;;;;;6.93;98.60;95614.28;5060997;28;20537;-78
2021/05/13 00:32:47;;;;;;;18.97;12.13;;;;;;;6.94;98.90;95623.78;5055146;28;20033;-77
2021/05/13 00:35:16;;;;;;;14.30;11.47;;;;;;;6.89;98.95;95626.03;5068316;28;20020;-77
2021/05/13 00:37:43;;;;;;;16.43;12.50;;;;;;;6.89;98.56;95625.19;5060053;28;20086;-77
2021/05/13 00:40:11;;;;;;;17.90;12.63;;;;;;;6.87;98.43;95624.53;5062162;28;20024;-78
2021/05/13 00:42:37;;;;;;;15.23;11.73;;;;;;;6.81;99.36;95618.94;5065755;28;20056;-78
2021/05/13 00:45:09;;;;;;;15.77;12.37;;;;;;;6.83;99.07;95608.31;5063962;28;20426;-77
2021/05/13 00:47:37;;;;;;;14.80;11.77;;;;;;;6.87;99.22;95611.44;5057959;28;20032;-78
2021/05/13 00:50:05;;;;;;;18.40;12.93;;;;;;;6.89;98.56;95606.91;5055983;28;20025;-78
2021/05/13 00:52:33;;;;;;;19.20;12.27;;;;;;;6.89;98.46;95607.72;5061171;28;20032;-78
2021/05/13 00:54:59;;;;;;;17.13;12.57;;;;;;;6.87;98.28;95616.69;5057970;28;20021;-77
2021/05/13 00:57:26;;;;;;;19.97;13.10;;;;;;;6.91;98.31;95612.78;5062214;28;20447;-77
2021/05/13 00:59:56;;;;;;;23.30;13.07;;;;;;;6.90;98.51;95611.16;5051470;28;20048;-77
2021/05/13 01:02:22;;;;;;;17.83;12.90;;;;;;;6.92;98.30;95614.44;5057858;28;20079;-78
2021/05/13 01:04:47;;;;;;;16.93;13.90;;;;;;;6.93;98.13;95608.25;5061833;28;20533;-78
2021/05/13 01:07:13;;;;;;;15.30;12.37;;;;;;;6.94;98.04;95610.72;5061369;28;20052;-78
2021/05/13 01:09:39;;;;;;;19.10;12.50;;;;;;;6.94;97.67;95604.66;5038958;28;20029;-77
2021/05/13 01:12:10;;;;;;;16.40;12.70;;;;;;;6.86;97.65;95618.47;5062249;28;20582;-76
2021/05/13 01:19:32;;;;;;;14.73;11.07;;;;;;;6.73;97.18;95592.72;5054700;28;20418;-78
2021/05/13 01:21:58;;;;;;;15.00;11.83;;;;;;;6.73;96.90;95597.94;5059547;28;20028;-78
2021/05/13 01:24:24;;;;;;;12.63;9.43;;;;;;;6.57;97.03;95603.88;5057483;28;20452;-78
2021/05/13 01:26:51;;;;;;;13.03;10.67;;;;;;;6.55;97.56;95605.81;5054780;28;20044;-77
2021/05/13 01:29:19;;;;;;;11.90;10.07;;;;;;;6.58;97.32;95599.47;5064409;28;20063;-77
2021/05/13 01:31:45;;;;;;;11.73;9.30;;;;;;;6.67;97.32;95597.75;5064993;28;20027;-77
2021/05/13 01:34:11;;;;;;;10.90;9.03;;;;;;;6.71;97.26;95599.91;5061326;28;20042;-77
2021/05/13 01:36:37;;;;;;;12.77;9.00;;;;;;;6.73;96.82;95584.88;5056854;28;20116;-78
2021/05/13 01:39:06;;;;;;;10.90;8.83;;;;;;;6.58;96.41;95589.03;5055418;28;20032;-77
2021/05/13 01:41:33;;;;;;;12.77;9.27;;;;;;;6.51;97.07;95583.59;5058975;28;20032;-77
2021/05/13 01:43:59;;;;;;;12.93;10.43;;;;;;;6.59;96.85;95574.97;5061636;28;20390;-77
2021/05/13 01:46:24;;;;;;;13.47;10.50;;;;;;;6.59;96.59;95567.16;5052797;28;20024;-78
2021/05/13 01:48:51;;;;;;;11.47;9.03;;;;;;;6.57;96.40;95569.06;5064137;28;20055;-77
2021/05/13 01:51:17;;;;;;;13.80;9.80;;;;;;;6.64;96.35;95559.69;5044273;28;20021;-78
2021/05/13 01:53:43;;;;;;;13.93;9.70;;;;;;;6.59;96.73;95557.50;5067582;28;20098;-80
2021/05/13 01:56:10;;;;;;;14.67;10.50;;;;;;;6.63;96.91;95552.00;5058697;28;20035;-77
2021/05/13 01:58:37;;;;;;;14.20;10.80;;;;;;;6.60;96.86;95542.66;5079924;28;20047;-77
2021/05/13 02:01:05;;;;;;;14.77;11.03;;;;;;;6.58;97.25;95539.38;5051241;28;20676;-77
2021/05/13 02:03:32;;;;;;;14.20;10.27;;;;;;;6.49;97.29;95537.69;5054029;28;20384;-76
2021/05/13 02:05:58;;;;;;;15.13;9.93;;;;;;;6.22;96.73;95541.19;5060837;28;20020;-77
2021/05/13 02:08:23;;;;;;;13.90;8.53;;;;;;;6.10;97.83;95541.44;5060935;28;20036;-78
2021/05/13 02:10:49;;;;;;;10.90;8.97;;;;;;;6.12;97.66;95542.09;5044209;28;20024;-78
2021/05/13 02:13:25;;;;;;;17.23;9.37;;;;;;;6.17;97.68;95532.97;5050436;28;20032;-77
2021/05/13 02:15:51;;;;;;;159.07;13.30;;;;;;;6.08;97.70;95537.31;5051230;28;20047;-78
2021/05/13 02:18:20;;;;;;;101.73;10.90;;;;;;;5.98;97.86;95534.78;5055664;28;20021;-78
2021/05/13 02:20:47;;;;;;;67.37;11.50;;;;;;;5.76;98.12;95546.41;5051802;28;20037;-77
2021/05/13 02:23:12;;;;;;;142.97;12.80;;;;;;;5.77;98.79;95542.84;5062184;28;20094;-78
2021/05/13 02:25:39;;;;;;;26.60;8.97;;;;;;;5.79;98.40;95533.06;5066724;28;20685;-77
2021/05/13 02:28:05;;;;;;;79.33;10.17;;;;;;;5.68;98.58;95535.91;5050602;28;20389;-77
2021/05/13 02:30:31;;;;;;;27.37;9.37;;;;;;;5.77;98.65;95535.03;5046747;28;20055;-77
2021/05/13 02:32:57;;;;;;;15.70;11.00;;;;;;;5.82;98.98;95532.78;5057456;28;20514;-77
2021/05/13 02:35:23;;;;;;;70.80;13.33;;;;;;;5.85;99.40;95532.50;5070075;28;20029;-77
2021/05/13 02:37:49;;;;;;;41.13;11.77;;;;;;;5.84;99.43;95525.63;5059017;28;20025;-77
2021/05/13 02:40:15;;;;;;;17.13;11.33;;;;;;;5.81;99.35;95518.09;5058114;28;20029;-77
2021/05/13 02:42:43;;;;;;;17.23;12.17;;;;;;;5.85;99.22;95522.06;5061999;28;20025;-78
2021/05/13 02:45:10;;;;;;;18.87;11.73;;;;;;;5.83;99.40;95523.16;5029128;28;20025;-77
2021/05/13 02:47:36;;;;;;;15.93;11.40;;;;;;;5.75;99.38;95534.34;5052925;28;20108;-77
2021/05/13 02:50:05;;;;;;;16.13;11.33;;;;;;;5.69;99.20;95534.91;5037892;28;20036;-76
2021/05/13 02:52:31;;;;;;;13.33;9.83;;;;;;;5.59;99.14;95548.00;5060660;28;20108;-77
2021/05/13 02:54:56;;;;;;;16.23;10.83;;;;;;;5.66;99.21;95535.22;5058233;28;20105;-77
2021/05/13 02:57:22;;;;;;;15.60;10.30;;;;;;;5.68;98.68;95525.47;5065394;28;20021;-77
2021/05/13 02:59:52;;;;;;;13.27;9.60;;;;;;;5.65;98.41;95523.16;5079974;28;20040;-77
2021/05/13 03:02:18;;;;;;;14.93;10.13;;;;;;;5.67;98.76;95531.66;5061546;28;20032;-77
2021/05/13 03:04:44;;;;;;;14.17;8.73;;;;;;;5.58;98.70;95535.94;5058024;28;20116;-77
2021/05/13 03:07:14;;;;;;;89.17;9.43;;;;;;;5.27;97.69;95539.81;5049160;28;20024;-77
2021/05/13 03:09:46;;;;;;;116.83;9.10;;;;;;;5.05;97.80;95535.75;5062492;28;20079;-77
2021/05/13 03:12:12;;;;;;;21.27;7.53;;;;;;;5.19;99.08;95536.13;5053137;28;20032;-78
2021/05/13 03:14:38;;;;;;;32.50;7.43;;;;;;;5.22;98.97;95537.63;5060262;28;20580;-77
2021/05/13 03:17:04;;;;;;;38.63;6.07;;;;;;;5.26;98.89;95533.75;5048492;28;20071;-78
2021/05/13 03:19:51;;;;;;;27.60;7.53;;;;;;;5.23;99.21;95538.44;5062798;28;20056;-78
2021/05/13 03:22:18;;;;;;;46.07;7.90;;;;;;;5.22;98.42;95537.63;5065329;28;20048;-77
2021/05/13 03:24:54;;;;;;;21.23;6.27;;;;;;;5.22;98.58;95544.63;5064489;28;20650;-79
2021/05/13 03:29:53;;;;;;;10.60;7.10;;;;;;;5.30;99.16;95539.50;5077679;28;20508;-77
2021/05/13 03:32:19;;;;;;;12.70;7.97;;;;;;;5.31;98.81;95541.97;5063960;28;20020;-77
2021/05/13 03:34:45;;;;;;;11.57;8.80;;;;;;;5.41;98.78;95541.94;5058891;28;20048;-77
2021/05/13 03:37:11;;;;;;;11.60;8.47;;;;;;;5.51;98.87;95534.06;5063482;28;20525;-77
2021/05/13 03:39:37;;;;;;;11.50;8.53;;;;;;;5.60;98.48;95535.78;5052052;28;20490;-77
2021/05/13 03:42:03;;;;;;;11.87;8.83;;;;;;;5.59;98.18;95539.38;5057971;28;20025;-77
2021/05/13 03:44:28;;;;;;;13.30;8.23;;;;;;;5.68;98.22;95538.50;5066166;28;20044;-77
2021/05/13 03:46:54;;;;;;;11.67;8.90;;;;;;;5.71;98.60;95530.38;5057609;28;20056;-77
2021/05/13 03:49:19;;;;;;;12.23;8.87;;;;;;;5.80;98.16;95526.91;5067969;28;20110;-79
2021/05/13 03:51:45;;;;;;;12.27;8.60;;;;;;;5.86;98.32;95523.69;5057835;28;20022;-78
2021/05/13 03:54:11;;;;;;;12.40;8.80;;;;;;;5.90;98.43;95532.88;5062965;28;20075;-78
2021/05/13 03:56:36;;;;;;;12.13;9.13;;;;;;;5.97;98.18;95522.72;5055667;28;20024;-77
2021/05/13 03:59:15;;;;;;;14.23;9.33;;;;;;;6.01;98.38;95523.22;5071185;28;20029;-78
2021/05/13 04:04:08;;;;;;;17.63;11.27;;;;;;;6.11;97.79;95514.34;5062632;28;20390;-78
2021/05/13 04:06:34;;;;;;;15.63;9.97;;;;;;;6.03;97.86;95519.47;5072030;28;20101;-78
2021/05/13 04:09:00;;;;;;;12.73;9.53;;;;;;;6.02;98.25;95524.84;5060386;28;20024;-77
2021/05/13 04:11:26;;;;;;;13.07;9.83;;;;;;;6.09;98.06;95521.50;5057770;28;20029;-78
2021/05/13 04:13:52;;;;;;;12.90;9.47;;;;;;;6.13;98.32;95522.84;5047812;28;20082;-77
2021/05/13 04:16:27;;;;;;;11.97;9.30;;;;;;;6.20;98.67;95523.06;5038830;28;20025;-77
2021/05/13 04:18:53;;;;;;;16.07;10.30;;;;;;;6.30;98.24;95518.56;5054875;28;20020;-78
2021/05/13 04:21:18;;;;;;;15.53;10.77;;;;;;;6.30;98.33;95515.97;5066134;28;20097;-77
2021/05/13 04:23:44;;;;;;;18.93;10.87;;;;;;;6.32;97.55;95511.44;5050405;28;20045;-77
2021/05/13 04:26:10;;;;;;;14.50;9.87;;;;;;;6.37;97.55;95509.19;5062785;28;20063;-77
2021/05/13 04:28:35;;;;;;;18.70;9.60;;;;;;;6.41;97.85;95508.91;5067104;28;20032;-77
2021/05/13 04:31:01;;;;;;;15.50;9.70;;;;;;;6.47;98.00;95516.09;5063941;28;20763;-77
2021/05/13 04:33:27;;;;;;;14.17;9.70;;;;;;;6.50;97.86;95510.56;5045979;28;20046;-77
2021/05/13 04:35:52;;;;;;;14.13;10.27;;;;;;;6.54;97.48;95506.72;5053461;28;20032;-78
2021/05/13 04:38:18;;;;;;;14.43;9.27;;;;;;;6.58;97.24;95506.25;5060361;28;20127;-79
2021/05/13 04:40:45;;;;;;;11.47;7.70;;;;;;;6.63;97.17;95508.38;5068590;28;20028;-77
2021/05/13 04:43:11;;;;;;;13.77;8.07;;;;;;;6.74;97.16;95505.53;5057083;28;20032;-78
2021/05/13 04:45:37;;;;;;;12.27;7.93;;;;;;;6.71;96.21;95505.84;5056262;28;20078;-78
2021/05/13 04:48:06;;;;;;;8.43;5.87;;;;;;;6.28;96.47;95506.66;5057232;28;20441;-78
2021/05/13 04:50:32;;;;;;;10.73;7.13;;;;;;;6.32;97.07;95503.59;5040896;28;20056;-78
2021/05/13 04:53:00;;;;;;;9.43;6.80;;;;;;;6.41;96.92;95512.31;5064926;28;20040;-78
2021/05/13 04:55:26;;;;;;;12.00;6.47;;;;;;;6.52;96.07;95508.66;5056736;28;20074;-74
2021/05/13 04:57:54;;;;;;;280.43;17.30;;;;;;;6.25;95.90;95507.78;5071322;28;20124;-77
2021/05/13 05:00:20;;;;;;;264.10;17.30;;;;;;;6.16;96.42;95510.47;5068836;28;20012;-79
2021/05/13 05:02:46;;;;;;;178.10;11.87;;;;;;;6.33;96.36;95497.38;5053187;28;20509;-77
2021/05/13 05:05:12;;;;;;;53.63;8.93;;;;;;;6.34;96.55;95501.66;5060244;28;20031;-77
2021/05/13 05:07:37;;;;;;;71.17;9.50;;;;;;;6.45;96.91;95494.56;5060016;28;20545;-77
2021/05/13 05:10:04;;;;;;;23.17;7.63;;;;;;;6.60;96.72;95495.63;5065746;28;20120;-77
2021/05/13 05:12:30;;;;;;;14.30;8.47;;;;;;;6.60;97.33;95490.41;5064260;28;20033;-78
2021/05/13 05:14:57;;;;;;;12.77;9.07;;;;;;;6.50;96.67;95495.72;5056965;28;20371;-77
2021/05/13 05:17:23;;;;;;;12.03;8.50;;;;;;;6.54;97.32;95493.66;5074418;28;20087;-78
2021/05/13 05:19:49;;;;;;;12.93;9.23;;;;;;;6.53;96.66;95492.00;5071567;28;20028;-76
2021/05/13 05:22:15;;;;;;;13.97;8.97;;;;;;;6.68;96.94;95489.66;5063047;28;20581;-80
2021/05/13 05:24:41;;;;;;;11.40;9.00;;;;;;;6.81;96.99;95485.66;5065196;28;20058;-77
2021/05/13 05:27:07;;;;;;;12.97;8.93;;;;;;;6.90;96.36;95488.31;5059795;28;20115;-78
2021/05/13 05:29:33;;;;;;;12.77;9.27;;;;;;;7.09;96.04;95480.25;5066336;28;20032;-77
2021/05/13 05:31:58;;;;;;;12.77;8.80;;;;;;;7.27;96.12;95483.59;5063261;28;20087;-77
2021/05/13 05:34:24;;;;;;;11.40;8.33;;;;;;;7.32;94.82;95483.94;5056936;28;20094;-77
2021/05/13 05:36:50;;;;;;;14.30;9.07;;;;;;;7.49;94.71;95484.00;5054948;28;21093;-77
2021/05/13 05:39:15;;;;;;;12.80;8.33;;;;;;;7.66;95.06;95482.25;5063463;28;20112;-78
2021/05/13 05:41:41;;;;;;;11.07;8.23;;;;;;;7.84;93.95;95482.13;5050328;28;20029;-78
2021/05/13 05:44:07;;;;;;;12.80;7.93;;;;;;;8.05;93.33;95474.66;5062197;28;20025;-77
2021/05/13 05:46:33;;;;;;;16.80;10.40;;;;;;;8.32;91.83;95475.31;5050462;28;20032;-78
2021/05/13 05:48:58;;;;;;;17.33;9.33;;;;;;;8.46;90.68;95472.06;5059602;28;20036;-78
2021/05/13 05:51:24;;;;;;;16.17;9.83;;;;;;;8.56;89.79;95477.16;5059789;28;20029;-77
2021/05/13 05:53:50;;;;;;;14.43;8.17;;;;;;;8.70;90.11;95482.53;5060842;28;20119;-78
2021/05/13 05:56:16;;;;;;;11.17;8.03;;;;;;;8.97;89.21;95470.03;5061892;28;20067;-78
2021/05/13 05:58:41;;;;;;;14.53;9.23;;;;;;;8.99;88.42;95473.31;5044029;28;20020;-78
2021/05/13 06:01:07;;;;;;;13.23;7.80;;;;;;;8.91;89.29;95466.25;5058693;28;20032;-78
2021/05/13 06:03:33;;;;;;;12.43;8.33;;;;;;;9.10;88.54;95470.31;5063203;28;20048;-78
2021/05/13 06:05:59;;;;;;;10.27;7.30;;;;;;;9.23;89.64;95469.78;5054018;28;20116;-78
2021/05/13 06:08:24;;;;;;;11.27;7.93;;;;;;;9.32;90.48;95471.41;5052388;28;20026;-78
2021/05/13 06:10:50;;;;;;;11.53;8.40;;;;;;;9.43;89.82;95467.56;5063973;28;20036;-78
2021/05/13 06:13:16;;;;;;;9.73;7.90;;;;;;;9.37;90.81;95468.25;5064805;28;20054;-78
2021/05/13 06:15:42;;;;;;;15.63;7.60;;;;;;;9.47;89.21;95468.88;5059041;28;20033;-77
2021/05/13 06:18:07;;;;;;;14.30;7.70;;;;;;;9.60;87.18;95474.38;5036063;28;20028;-78
2021/05/13 06:20:34;;;;;;;11.63;7.13;;;;;;;9.77;86.95;95463.78;5052813;28;20064;-77
2021/05/13 06:23:01;;;;;;;12.30;7.37;;;;;;;10.06;86.92;95455.22;5066812;28;20021;-79
2021/05/13 06:25:29;;;;;;;9.87;6.20;;;;;;;10.44;84.90;95453.50;5069426;28;20039;-78
2021/05/13 06:27:56;;;;;;;10.63;6.53;;;;;;;10.64;83.23;95466.16;5058068;28;20036;-78
2021/05/13 06:30:23;;;;;;;11.70;7.03;;;;;;;11.31;81.64;95455.56;5050110;28;20025;-78
2021/05/13 06:32:49;;;;;;;15.63;8.17;;;;;;;11.41;81.12;95456.13;5058420;28;20059;-78
2021/05/13 06:35:17;;;;;;;9.67;5.23;;;;;;;11.12;81.53;95462.19;5067490;28;20029;-78
2021/05/13 06:37:43;;;;;;;9.67;5.40;;;;;;;11.66;82.03;95459.25;5065902;28;20036;-78
2021/05/13 06:40:09;;;;;;;9.53;5.10;;;;;;;11.56;80.78;95453.44;5060645;28;20021;-78
2021/05/13 06:42:36;;;;;;;9.07;5.57;;;;;;;11.58;80.48;95459.34;5076364;28;20515;-78
2021/05/13 06:45:06;;;;;;;10.17;4.53;;;;;;;11.67;80.06;95457.41;5057308;28;20028;-78
2021/05/13 06:47:33;;;;;;;9.10;4.60;;;;;;;11.53;79.78;95464.34;5049332;28;20033;-78
2021/05/13 06:49:59;;;;;;;11.40;5.40;;;;;;;11.82;78.48;95468.75;5065838;28;20028;-78
2021/05/13 06:52:25;;;;;;;6.80;4.33;;;;;;;11.98;79.27;95462.47;5062642;28;20090;-78
2021/05/13 06:54:50;;;;;;;7.20;4.37;;;;;;;12.31;79.43;95454.91;5080417;28;20043;-77
2021/05/13 06:57:16;;;;;;;8.20;4.47;;;;;;;12.50;77.04;95456.88;5072046;28;20032;-78
2021/05/13 06:59:42;;;;;;;9.67;4.50;;;;;;;13.17;74.52;95446.78;5066124;28;20039;-78
2021/05/13 07:02:09;;;;;;;6.30;4.40;;;;;;;13.81;72.37;95459.69;5064798;28;20352;-78
2021/05/13 07:04:35;;;;;;;11.77;5.17;;;;;;;14.22;72.24;95450.88;5065738;28;20074;-79
2021/05/13 07:07:00;;;;;;;10.23;4.53;;;;;;;13.76;72.09;95446.28;5067266;28;20024;-79
2021/05/13 07:09:26;;;;;;;8.90;4.23;;;;;;;13.48;73.12;95446.38;5065531;28;20067;-79
2021/05/13 07:11:52;;;;;;;10.40;4.73;;;;;;;13.85;71.91;95442.47;5051137;28;20035;-79
2021/05/13 07:14:18;;;;;;;8.57;4.53;;;;;;;13.82;70.10;95445.50;5067149;28;20055;-82
2021/05/13 07:16:44;;;;;;;8.17;4.07;;;;;;;14.14;71.45;95443.94;5059862;28;20025;-77
2021/05/13 07:19:09;;;;;;;8.30;4.40;;;;;;;14.59;68.94;95444.22;5057987;28;20024;-78
2021/05/13 07:21:35;;;;;;;10.23;4.30;;;;;;;14.72;67.27;95438.13;5062659;28;20858;-77
2021/05/13 07:24:02;;;;;;;8.80;4.10;;;;;;;14.98;66.22;95433.81;5066181;28;20025;-77
2021/05/13 07:26:28;;;;;;;9.53;4.43;;;;;;;15.25;63.73;95432.72;5061846;28;20036;-77
2021/05/13 07:28:54;;;;;;;8.47;4.50;;;;;;;15.50;63.83;95438.19;5063033;28;20039;-77
2021/05/13 07:31:20;;;;;;;7.30;4.13;;;;;;;15.82;61.67;95432.16;5061425;28;20025;-77
2021/05/13 07:33:47;;;;;;;6.85;3.80;;;;;;;15.77;62.93;95428.31;5064045;28;20025;-77
2021/05/13 07:36:13;;;;;;;8.52;3.67;;;;;;;16.24;62.04;95418.25;5059347;28;20108;-77
2021/05/13 07:38:39;;;;;;;8.25;3.70;;;;;;;16.20;61.27;95418.91;5053384;28;20045;-77
2021/05/13 07:41:06;;;;;;;7.25;3.88;;;;;;;16.82;61.72;95421.72;5065459;28;20032;-78
2021/05/13 07:43:34;;;;;;;7.20;3.53;;;;;;;17.43;59.16;95420.88;5049013;28;20047;-76
2021/05/13 07:46:01;;;;;;;6.50;3.08;;;;;;;17.13;56.81;95420.78;5058115;28;20020;-79
2021/05/13 07:48:28;;;;;;;8.32;3.13;;;;;;;17.22;57.74;95418.69;5066661;28;20600;-78
2021/05/13 07:50:55;;;;;;;7.70;2.90;;;;;;;17.55;55.56;95419.13;5061384;28;20066;-77
2021/05/13 07:53:21;;;;;;;6.80;3.10;;;;;;;17.66;54.70;95415.69;5062390;28;20123;-77
2021/05/13 07:55:47;;;;;;;5.55;2.50;;;;;;;18.81;52.41;95412.06;5063923;28;20017;-77
2021/05/13 07:58:12;;;;;;;7.82;3.20;;;;;;;17.50;53.20;95421.63;5065410;28;20024;-79
2021/05/13 08:00:40;;;;;;;7.30;3.25;;;;;;;17.90;56.65;95413.19;5046176;28;20079;-79
2021/05/13 08:03:05;;;;;;;6.35;3.03;;;;;;;17.94;53.43;95410.88;5063565;28;20025;-81
2021/05/13 08:05:31;;;;;;;6.85;3.35;;;;;;;18.38;52.75;95404.34;5050737;28;20036;-80
2021/05/13 08:07:57;;;;;;;5.82;2.38;;;;;;;19.19;51.05;95399.31;5065236;28;20024;-79
2021/05/13 08:10:23;;;;;;;6.88;2.60;;;;;;;19.31;49.90;95402.75;5076594;28;20643;-80
2021/05/13 08:12:49;;;;;;;6.43;2.33;;;;;;;18.47;49.20;95391.47;5047421;28;20025;-78
2021/05/13 08:15:15;;;;;;;6.25;2.00;;;;;;;18.16;48.08;95397.91;5063946;28;20700;-78
2021/05/13 08:17:42;;;;;;;7.13;2.05;;;;;;;18.63;49.05;95390.81;5072533;28;20483;-79
2021/05/13 08:20:10;;;;;;;10.85;6.07;;;;;;;19.31;47.12;95389.44;5041151;28;20378;-79
2021/05/13 08:22:36;;;;;;;6.13;3.03;;;;;;;19.44;48.93;95389.16;5067114;28;20060;-78
2021/05/13 08:25:04;;;;;;;11.00;6.53;;;;;;;20.15;46.59;95378.28;5068123;28;20081;-80
2021/05/13 08:27:31;;;;;;;6.43;2.72;;;;;;;19.81;48.21;95383.53;5059417;28;20028;-77
2021/05/13 08:29:59;;;;;;;6.63;2.45;;;;;;;20.22;45.42;95378.94;5073417;28;20133;-78
2021/05/13 08:32:25;;;;;;;5.45;2.25;;;;;;;20.07;44.28;95379.47;5055864;28;20049;-80
2021/05/13 08:34:53;;;;;;;4.68;1.98;;;;;;;19.07;46.76;95373.47;5064667;28;20094;-79
2021/05/13 08:37:19;;;;;;;5.32;2.85;;;;;;;19.21;47.50;95378.56;5082446;28;20029;-79
2021/05/13 08:39:45;;;;;;;3.83;1.92;;;;;;;18.93;48.33;95381.94;5063447;28;20032;-80
2021/05/13 08:42:12;;;;;;;5.03;1.98;;;;;;;18.17;49.16;95388.88;5070176;28;20481;-80
2021/05/13 08:44:43;;;;;;;5.05;1.92;;;;;;;17.23;50.59;95383.91;5066946;28;20028;-79
2021/05/13 08:47:09;;;;;;;4.00;2.10;;;;;;;17.54;50.44;95387.41;5064254;28;20032;-79
2021/05/13 08:49:36;;;;;;;6.15;1.80;;;;;;;17.06;51.37;95388.19;5063987;28;20020;-81
2021/05/13 08:52:13;;;;;;;5.45;1.95;;;;;;;17.25;49.65;95383.69;5060636;28;20037;-80
2021/05/13 08:54:59;;;;;;;7.10;1.67;;;;;;;17.24;48.36;95382.88;5046711;28;20040;-80
2021/05/13 08:57:26;;;;;;;4.93;1.90;;;;;;;19.01;45.82;95374.44;5053628;28;20029;-81
2021/05/13 08:59:53;;;;;;;8.52;2.45;;;;;;;19.02;43.98;95360.03;5057839;28;20473;-80
2021/05/13 09:02:21;;;;;;;6.30;2.20;;;;;;;18.68;45.63;95366.16;5068865;28;20379;-80
2021/05/13 09:04:48;;;;;;;5.03;1.85;;;;;;;18.03;48.24;95373.09;5063142;28;20032;-80
2021/05/13 09:07:21;;;;;;;7.57;3.60;;;;;;;18.00;48.54;95378.06;5057572;28;20047;-80
2021/05/13 09:09:58;;;;;;;10.13;5.88;;;;;;;18.25;47.63;95370.75;5061942;28;20041;-80
2021/05/13 09:12:36;;;;;;;6.93;1.80;;;;;;;18.79;46.32;95355.53;5063056;28;20383;-79
2021/05/13 09:15:10;;;;;;;7.05;1.42;;;;;;;19.54;45.75;95352.03;5061561;28;20045;-79
2021/05/13 09:17:41;;;;;;;5.65;1.45;;;;;;;19.65;46.47;95352.28;5055445;28;20036;-80
2021/05/13 09:20:28;;;;;;;5.03;1.75;;;;;;;19.98;42.28;95352.34;5057869;28;20067;-79
2021/05/13 09:23:14;;;;;;;5.25;1.65;;;;;;;20.25;42.16;95343.75;5047160;28;20033;-79
2021/05/13 09:25:42;;;;;;;4.90;1.63;;;;;;;21.51;39.63;95343.22;5051565;28;20055;-79
2021/05/13 09:28:08;;;;;;;7.32;3.00;;;;;;;20.67;40.83;95343.38;5062177;28;20127;-79
2021/05/13 09:30:38;;;;;;;5.47;2.17;;;;;;;19.60;43.58;95344.16;5061456;28;20064;-79
2021/05/13 09:33:05;;;;;;;5.32;1.70;;;;;;;20.30;42.87;95338.50;5061729;28;20025;-79
2021/05/13 09:35:36;;;;;;;5.40;1.73;;;;;;;20.83;42.79;95336.41;5069756;28;20028;-79
2021/05/13 09:38:07;;;;;;;3.30;1.45;;;;;;;21.27;40.49;95342.63;5068642;28;20028;-79
2021/05/13 09:40:38;;;;;;;4.68;1.83;;;;;;;21.32;37.80;95339.19;5071230;28;20039;-79
2021/05/13 09:43:19;;;;;;;4.38;2.15;;;;;;;22.95;35.13;95326.59;5084600;28;20092;-79
2021/05/13 09:45:53;;;;;;;8.65;2.67;;;;;;;23.33;33.56;95322.75;5087045;28;20043;-79
2021/05/13 09:48:38;;;;;;;6.35;1.58;;;;;;;23.55;33.44;95314.53;5068330;28;20394;-79
2021/05/13 09:51:40;;;;;;;3.63;1.27;;;;;;;22.93;33.66;95304.59;5068859;28;20051;-80
2021/05/13 09:54:17;;;;;;;4.97;1.40;;;;;;;24.60;34.80;95305.31;5040619;28;20041;-80
2021/05/13 09:56:47;;;;;;;7.03;1.65;;;;;;;23.63;34.01;95303.28;5064018;28;20215;-80
2021/05/13 09:59:20;;;;;;;3.90;1.30;;;;;;;23.23;36.50;95288.66;5065555;28;20037;-81
2021/05/13 10:01:47;;;;;;;2.72;1.05;;;;;;;22.99;36.88;95308.91;5067285;28;20367;-79
2021/05/13 10:04:14;;;;;;;6.45;2.10;;;;;;;20.89;39.19;95316.69;5065304;28;20029;-79
2021/05/13 10:06:40;;;;;;;6.13;1.13;;;;;;;21.88;37.23;95308.56;5046953;28;20050;-80
2021/05/13 10:09:06;;;;;;;6.57;1.42;;;;;;;22.12;36.79;95305.56;5069956;28;20338;-79
2021/05/13 10:11:32;;;;;;;3.92;1.23;;;;;;;22.63;33.57;95297.94;5069990;28;20041;-80
2021/05/13 10:13:58;;;;;;;4.88;1.05;;;;;;;22.66;34.01;95296.63;5067053;28;20082;-81
2021/05/13 10:16:27;;;;;;;7.85;1.25;;;;;;;21.99;35.66;95295.25;5061592;28;20460;-80
2021/05/13 10:19:00;;;;;;;8.27;3.35;;;;;;;21.58;38.45;95298.34;5063941;28;20082;-79
2021/05/13 10:21:31;;;;;;;6.45;2.67;;;;;;;21.16;38.99;95295.44;5066496;28;20055;-80
2021/05/13 10:23:58;;;;;;;2.63;1.00;;;;;;;20.44;39.31;95291.72;5071474;28;20716;-80
2021/05/13 10:26:29;;;;;;;3.55;1.20;;;;;;;19.84;41.01;95289.69;5072593;28;20035;-80
2021/05/13 10:28:55;;;;;;;5.85;1.17;;;;;;;19.68;42.87;95293.13;5071187;28;20040;-80
2021/05/13 10:31:43;;;;;;;2.28;1.00;;;;;;;19.16;42.96;95293.16;5072129;28;20088;-80
2021/05/13 10:34:08;;;;;;;7.05;1.58;;;;;;;19.56;43.99;95290.47;5067756;28;20055;-80
2021/05/13 10:36:34;;;;;;;6.03;2.33;;;;;;;19.08;43.93;95289.84;5072516;28;20028;-81
2021/05/13 10:39:09;;;;;;;5.32;1.63;;;;;;;18.85;44.11;95287.22;5074367;28;20443;-80
2021/05/13 10:41:36;;;;;;;5.68;1.10;;;;;;;18.95;44.52;95283.97;5067258;28;20436;-80
2021/05/13 10:44:11;;;;;;;5.53;2.70;;;;;;;18.56;43.38;95284.41;5066440;28;20111;-80
2021/05/13 10:46:38;;;;;;;10.35;6.03;;;;;;;18.85;43.82;95289.88;5060780;28;20631;-80
2021/05/13 10:49:24;;;;;;;5.68;1.70;;;;;;;19.93;43.07;95279.44;5066922;28;20095;-80
2021/05/13 10:51:52;;;;;;;5.35;2.63;;;;;;;20.87;39.04;95278.75;5065710;28;20032;-80
2021/05/13 10:54:27;;;;;;;8.95;5.70;;;;;;;19.71;43.14;95277.44;5051005;28;20028;-81
2021/05/13 10:57:17;;;;;;;6.70;1.83;;;;;;;19.84;43.08;95275.53;5061680;28;20037;-80
2021/05/13 11:00:08;;;;;;;34.65;13.45;;;;;;;21.40;41.78;95270.06;5061776;28;20685;-80
2021/05/13 11:02:41;;;;;;;7.70;3.40;;;;;;;21.20;42.34;95264.47;5063833;28;20033;-82
2021/05/13 11:05:39;;;;;;;3.25;1.38;;;;;;;20.80;39.89;95257.53;5066714;28;20036;-80
2021/05/13 11:08:25;;;;;;;4.07;1.52;;;;;;;19.70;43.34;95264.34;5063983;28;20032;-79
2021/05/13 11:10:59;;;;;;;8.05;2.72;;;;;;;20.03;43.24;95268.91;5068909;28;20091;-79
2021/05/13 11:13:43;;;;;;;6.65;1.98;;;;;;;20.05;42.51;95271.34;5069238;28;20096;-80
2021/05/13 11:16:42;;;;;;;3.92;1.30;;;;;;;21.08;41.19;95271.78;5055677;28;20087;-79
2021/05/13 11:19:15;;;;;;;3.50;1.30;;;;;;;22.12;40.19;95258.16;5064090;28;20032;-79
2021/05/13 11:22:03;;;;;;;3.88;1.20;;;;;;;21.54;39.26;95259.78;5066961;28;20028;-79
2021/05/13 11:24:33;;;;;;;3.47;1.35;;;;;;;22.10;38.04;95257.63;5063799;28;20039;-80
2021/05/13 11:26:59;;;;;;;6.65;3.25;;;;;;;22.56;35.83;95251.81;5065844;28;20058;-80
2021/05/13 11:29:24;;;;;;;7.35;3.88;;;;;;;23.01;36.16;95247.81;5046618;28;20335;-80
2021/05/13 11:31:51;;;;;;;10.05;4.40;;;;;;;21.49;38.10;95258.91;5063719;28;20079;-79
2021/05/13 11:34:20;;;;;;;3.60;1.13;;;;;;;20.76;39.52;95256.44;5064076;28;20028;-79
2021/05/13 11:36:47;;;;;;;3.67;1.40;;;;;;;21.33;38.86;95260.59;5064664;28;20050;-80
2021/05/13 11:39:18;;;;;;;3.75;1.38;;;;;;;20.28;39.76;95252.50;5071705;28;20024;-80
2021/05/13 11:41:46;;;;;;;5.22;1.30;;;;;;;20.18;40.31;95245.13;5070269;28;20033;-80
2021/05/13 11:44:12;;;;;;;5.32;2.15;;;;;;;19.71;41.96;95256.09;5052564;28;20053;-80
2021/05/13 11:46:40;;;;;;;5.32;1.48;;;;;;;19.38;41.63;95256.00;5055727;28;20622;-80